createdAt,value
2023-03-17T00:03:37.680Z,4.03
2023-03-17T00:07:48.027Z,3.70
2023-03-17T00:11:56.594Z,3.40
2023-03-17T00:16:07.560Z,4.07
2023-03-17T00:20:37.362Z,3.63
2023-03-17T00:24:45.962Z,4.63
2023-03-17T00:28:55.140Z,3.00
2023-03-17T00:33:03.768Z,4.07
2023-03-17T00:37:13.620Z,4.13
2023-03-17T00:41:22.730Z,3.37
2023-03-17T00:45:31.456Z,3.33
2023-03-17T00:49:40.202Z,3.10
2023-03-17T00:53:49.303Z,3.03
2023-03-17T00:57:58.061Z,3.67
2023-03-17T01:02:07.123Z,3.13
2023-03-17T01:06:17.574Z,3.00
2023-03-17T01:10:28.997Z,2.90
2023-03-17T01:14:38.146Z,2.80
2023-03-17T01:18:46.877Z,2.63
2023-03-17T01:22:56.485Z,3.23
2023-03-17T01:27:05.187Z,3.00
2023-03-17T01:31:13.782Z,3.00
2023-03-17T01:35:24.297Z,2.93
2023-03-17T01:39:33.442Z,3.20
2023-03-17T01:43:42.567Z,3.23
2023-03-17T01:47:51.263Z,4.23
2023-03-17T01:52:06.236Z,2.93
2023-03-17T01:56:15.312Z,3.93
2023-03-17T02:00:26.570Z,3.10
2023-03-17T02:04:38.547Z,3.47
2023-03-17T02:08:47.589Z,2.90
2023-03-17T02:13:03.013Z,2.93
2023-03-17T02:17:11.845Z,3.27
2023-03-17T02:21:50.534Z,3.57
2023-03-17T02:25:59.060Z,3.00
2023-03-17T02:30:11.651Z,2.93
2023-03-17T02:34:21.163Z,2.90
2023-03-17T02:38:29.793Z,2.90
2023-03-17T02:42:39.420Z,4.17
2023-03-17T02:46:48.061Z,3.50
2023-03-17T02:50:56.662Z,3.37
2023-03-17T02:55:24.569Z,2.60
2023-03-17T02:59:33.205Z,2.77
2023-03-17T03:03:41.970Z,3.13
2023-03-17T03:07:51.483Z,3.17
2023-03-17T03:12:00.153Z,2.80
2023-03-17T03:16:09.391Z,3.57
2023-03-17T03:20:18.423Z,3.50
2023-03-17T03:24:27.850Z,3.20
2023-03-17T03:28:36.469Z,2.20
2023-03-17T03:32:45.074Z,3.53
2023-03-17T03:36:53.833Z,2.60
2023-03-17T03:41:02.508Z,3.33
2023-03-17T03:45:11.903Z,3.20
2023-03-17T03:49:39.904Z,3.00
2023-03-17T03:53:51.595Z,2.77
2023-03-17T03:58:00.416Z,3.20
2023-03-17T04:02:09.761Z,3.20
2023-03-17T04:06:18.390Z,2.90
2023-03-17T04:10:27.266Z,3.53
2023-03-17T04:14:36.397Z,3.23
2023-03-17T04:18:45.018Z,2.40
2023-03-17T04:22:53.673Z,3.27
2023-03-17T04:27:05.469Z,3.50
2023-03-17T04:31:13.546Z,2.33
2023-03-17T04:35:25.588Z,3.53
2023-03-17T04:39:34.283Z,3.20
2023-03-17T04:43:43.014Z,3.23
2023-03-17T04:47:51.679Z,3.33
2023-03-17T04:52:00.840Z,3.00
2023-03-17T04:56:09.512Z,2.70
2023-03-17T05:00:18.556Z,2.90
2023-03-17T05:04:31.748Z,3.00
2023-03-17T05:08:37.445Z,3.30
2023-03-17T05:12:46.076Z,3.60
2023-03-17T05:16:54.828Z,3.10
2023-03-17T05:21:03.758Z,2.87
2023-03-17T05:25:12.322Z,3.67
2023-03-17T05:29:20.954Z,3.10
2023-03-17T05:33:33.086Z,3.20
2023-03-17T05:37:41.748Z,3.07
2023-03-17T05:41:51.127Z,3.70
2023-03-17T05:46:00.270Z,3.17
2023-03-17T05:50:09.463Z,3.07
2023-03-17T05:54:17.991Z,3.30
2023-03-17T05:58:26.628Z,4.10
2023-03-17T06:02:35.791Z,3.60
2023-03-17T06:06:44.385Z,3.53
2023-03-17T06:10:53.328Z,3.50
2023-03-17T06:15:01.958Z,3.17
2023-03-17T06:19:10.994Z,3.60
2023-03-17T06:23:19.638Z,3.20
2023-03-17T06:27:28.469Z,2.70
2023-03-17T06:31:39.337Z,3.00
2023-03-17T06:35:48.214Z,3.40
2023-03-17T06:39:57.724Z,3.30
2023-03-17T06:44:07.373Z,3.50
2023-03-17T06:48:16.003Z,3.43
2023-03-17T06:52:24.529Z,3.30
2023-03-17T06:56:33.444Z,3.03
2023-03-17T07:00:42.321Z,3.53
2023-03-17T07:04:52.067Z,2.90
2023-03-17T07:09:02.243Z,3.70
2023-03-17T07:13:11.295Z,3.60
2023-03-17T07:17:20.256Z,3.20
2023-03-17T07:21:28.983Z,3.70
2023-03-17T07:25:37.504Z,4.60
2023-03-17T07:29:46.800Z,4.30
2023-03-17T07:33:57.395Z,4.37
2023-03-17T07:38:06.489Z,4.93
2023-03-17T07:42:17.550Z,4.03
2023-03-17T07:46:26.762Z,4.47
2023-03-17T07:50:36.910Z,4.23
2023-03-17T07:54:45.834Z,4.17
2023-03-17T07:58:54.795Z,3.80
2023-03-17T08:03:10.337Z,3.43
2023-03-17T08:07:15.644Z,3.37
2023-03-17T08:11:24.450Z,3.93
2023-03-17T08:15:33.077Z,4.17
2023-03-17T08:19:42.521Z,3.80
2023-03-17T08:23:51.107Z,4.20
2023-03-17T08:27:59.886Z,4.07
2023-03-17T08:32:09.471Z,4.53
2023-03-17T08:36:19.837Z,4.30
2023-03-17T08:40:28.557Z,4.27
2023-03-17T08:44:37.214Z,4.17
2023-03-17T08:48:48.159Z,4.70
2023-03-17T08:52:56.882Z,4.10
2023-03-17T08:57:05.817Z,3.67
2023-03-17T09:01:15.272Z,3.80
2023-03-17T09:05:24.237Z,3.77
2023-03-17T09:09:34.880Z,4.00
2023-03-17T09:13:43.721Z,3.73
2023-03-17T09:17:52.341Z,3.60
2023-03-17T09:22:02.604Z,3.43
2023-03-17T09:26:13.173Z,3.80
2023-03-17T09:30:21.844Z,4.20
2023-03-17T09:34:51.520Z,3.57
2023-03-17T09:39:00.597Z,4.23
2023-03-17T09:43:27.329Z,4.03
2023-03-17T09:47:45.267Z,4.10
2023-03-17T09:51:54.289Z,4.30
2023-03-17T09:56:05.885Z,4.33
2023-03-17T10:00:20.650Z,4.23
2023-03-17T10:04:29.274Z,3.70
2023-03-17T10:08:41.109Z,3.30
2023-03-17T10:12:58.546Z,4.20
2023-03-17T10:17:19.096Z,4.30
2023-03-17T10:21:36.998Z,4.33
2023-03-17T10:25:45.535Z,3.90
2023-03-17T10:29:54.134Z,4.33
2023-03-17T10:34:21.131Z,5.37
2023-03-17T10:38:29.688Z,5.60
2023-03-17T10:42:47.788Z,4.90
2023-03-17T10:46:57.217Z,4.60
2023-03-17T10:51:11.909Z,4.23
2023-03-17T10:55:24.222Z,4.93
2023-03-17T10:59:35.529Z,3.77
2023-03-17T11:03:44.134Z,4.90
2023-03-17T11:08:15.112Z,4.40
2023-03-17T11:12:43.975Z,4.43
2023-03-17T11:17:01.120Z,4.13
2023-03-17T11:21:14.997Z,3.93
2023-03-17T11:25:25.435Z,4.03
2023-03-17T11:29:54.400Z,4.50
2023-03-17T11:34:08.898Z,4.27
2023-03-17T11:38:24.442Z,4.00
2023-03-17T11:42:51.299Z,4.70
2023-03-17T11:47:21.007Z,4.03
2023-03-17T11:51:36.087Z,6.07
2023-03-17T11:55:47.783Z,4.37
2023-03-17T11:59:59.417Z,4.63
2023-03-17T12:04:26.179Z,4.43
2023-03-17T12:08:47.040Z,4.33
2023-03-17T12:13:07.553Z,5.00
2023-03-17T12:17:35.633Z,4.53
2023-03-17T12:21:52.976Z,3.87
2023-03-17T12:26:06.166Z,3.80
2023-03-17T12:30:20.972Z,3.70
2023-03-17T12:34:57.354Z,4.43
2023-03-17T12:39:18.319Z,4.90
2023-03-17T12:43:36.326Z,4.77
2023-03-17T12:48:10.645Z,5.07
2023-03-17T12:52:25.931Z,4.17
2023-03-17T12:56:36.619Z,4.00
2023-03-17T13:00:51.489Z,4.80
2023-03-17T13:05:01.888Z,3.80
2023-03-17T13:09:31.640Z,4.47
2023-03-17T13:13:49.437Z,4.20
2023-03-17T13:18:18.947Z,4.40
2023-03-17T13:22:36.690Z,3.80
2023-03-17T13:27:01.945Z,4.30
2023-03-17T13:31:35.729Z,3.30
2023-03-17T13:35:53.459Z,3.40
2023-03-17T13:40:22.157Z,3.90
2023-03-17T13:44:47.590Z,3.80
2023-03-17T13:48:57.646Z,4.10
2023-03-17T13:53:10.464Z,4.57
2023-03-17T13:57:28.850Z,4.87
2023-03-17T14:01:46.954Z,4.70
2023-03-17T14:05:56.270Z,3.47
2023-03-17T14:10:05.709Z,4.00
2023-03-17T14:14:32.965Z,3.70
2023-03-17T14:18:45.705Z,3.70
2023-03-17T14:23:02.554Z,3.70
2023-03-17T14:27:14.786Z,3.30
2023-03-17T14:31:43.097Z,3.00
2023-03-17T14:35:54.522Z,3.30
2023-03-17T14:40:03.420Z,2.90
2023-03-17T14:44:12.150Z,2.93
2023-03-17T14:48:26.426Z,3.00
2023-03-17T14:52:36.609Z,3.70
2023-03-17T14:56:48.366Z,3.70
2023-03-17T15:01:00.132Z,3.77
2023-03-17T15:05:20.986Z,4.20
2023-03-17T15:09:38.221Z,3.90
2023-03-17T15:13:48.474Z,3.70
2023-03-17T15:18:00.537Z,3.67
2023-03-17T15:22:33.495Z,3.43
2023-03-17T15:26:42.281Z,4.10
2023-03-17T15:30:53.290Z,4.07
2023-03-17T15:35:02.362Z,4.07
2023-03-17T15:39:11.078Z,4.13
2023-03-17T15:43:23.855Z,3.60
2023-03-17T15:47:35.528Z,4.23
2023-03-17T15:51:44.099Z,3.77
2023-03-17T15:55:53.406Z,3.03
2023-03-17T16:00:02.306Z,3.33
2023-03-17T16:04:10.986Z,3.13
2023-03-17T16:08:19.860Z,3.50
2023-03-17T16:12:28.506Z,3.20
2023-03-17T16:16:45.013Z,3.13
2023-03-17T16:20:54.776Z,3.37
2023-03-17T16:25:27.544Z,2.57
2023-03-17T16:29:36.135Z,3.10
2023-03-17T16:33:45.138Z,3.20
2023-03-17T16:37:56.929Z,2.93
2023-03-17T16:42:05.611Z,3.43
2023-03-17T16:46:14.483Z,3.30
2023-03-17T16:50:26.516Z,2.60
2023-03-17T16:54:35.243Z,3.47
2023-03-17T16:58:44.349Z,2.60
2023-03-17T17:02:53.689Z,3.30
2023-03-17T17:07:02.491Z,3.13
2023-03-17T17:11:12.995Z,2.43
2023-03-17T17:15:22.969Z,2.80
2023-03-17T17:19:31.585Z,3.00
2023-03-17T17:23:40.218Z,3.27
2023-03-17T17:27:48.950Z,2.80
2023-03-17T17:31:57.538Z,3.60
2023-03-17T17:36:08.916Z,2.90
2023-03-17T17:40:20.666Z,3.40
2023-03-17T17:44:29.432Z,2.60
2023-03-17T17:48:37.960Z,2.83
2023-03-17T17:52:47.908Z,2.60
2023-03-17T17:56:56.655Z,2.83
2023-03-17T18:01:05.680Z,2.87
2023-03-17T18:05:14.735Z,2.63
2023-03-17T18:09:23.784Z,2.93
2023-03-17T18:13:34.482Z,2.92
2023-03-17T18:17:43.683Z,2.50
2023-03-17T18:21:52.312Z,3.27
2023-03-17T18:26:02.342Z,2.90
2023-03-17T18:30:14.122Z,3.63
2023-03-17T18:34:43.564Z,3.10
2023-03-17T18:38:52.617Z,2.60
2023-03-17T18:43:20.613Z,3.07
2023-03-17T18:47:29.241Z,3.17
2023-03-17T18:51:37.821Z,2.57
2023-03-17T18:55:46.949Z,2.97
2023-03-17T18:59:56.280Z,3.10
2023-03-17T19:04:05.861Z,3.03
2023-03-17T19:08:16.383Z,3.20
2023-03-17T19:12:25.420Z,2.83
2023-03-17T19:16:34.640Z,3.20
2023-03-17T19:20:44.117Z,2.90
2023-03-17T19:24:53.358Z,3.00
2023-03-17T19:29:02.170Z,2.80
2023-03-17T19:33:10.913Z,3.03
2023-03-17T19:37:19.462Z,2.70
2023-03-17T19:41:29.672Z,3.63
2023-03-17T19:45:38.376Z,3.33
2023-03-17T19:49:47.585Z,2.90
2023-03-17T19:53:56.801Z,3.03
2023-03-17T19:58:06.418Z,3.37
2023-03-17T20:02:16.706Z,3.60
2023-03-17T20:06:25.337Z,3.20
2023-03-17T20:10:34.324Z,3.77
2023-03-17T20:14:42.955Z,3.30
2023-03-17T20:18:51.513Z,3.60
2023-03-17T20:23:00.100Z,3.27
2023-03-17T20:27:10.663Z,3.43
2023-03-17T20:31:19.387Z,3.13
2023-03-17T20:35:28.333Z,3.50
2023-03-17T20:39:37.972Z,3.03
2023-03-17T20:44:06.281Z,3.03
2023-03-17T20:48:15.004Z,3.27
2023-03-17T20:52:24.276Z,2.80
2023-03-17T20:56:37.498Z,3.20
2023-03-17T21:00:46.150Z,3.40
2023-03-17T21:04:54.751Z,4.07
2023-03-17T21:09:04.696Z,3.10
2023-03-17T21:13:13.536Z,3.60
2023-03-17T21:17:22.791Z,3.60
2023-03-17T21:21:31.325Z,3.80
2023-03-17T21:25:40.275Z,3.60
2023-03-17T21:30:01.169Z,4.13
2023-03-17T21:34:21.771Z,4.10
2023-03-17T21:38:31.233Z,3.40
2023-03-17T21:42:40.824Z,3.70
2023-03-17T21:46:50.711Z,3.17
2023-03-17T21:50:59.264Z,3.63
2023-03-17T21:55:08.168Z,3.67
2023-03-17T21:59:18.479Z,3.63
2023-03-17T22:03:27.202Z,3.77
2023-03-17T22:07:35.816Z,3.00
2023-03-17T22:12:04.414Z,3.87
2023-03-17T22:16:14.801Z,3.60
2023-03-17T22:20:23.358Z,3.70
2023-03-17T22:24:32.515Z,4.00
2023-03-17T22:28:42.117Z,3.67
2023-03-17T22:32:50.992Z,3.67
2023-03-17T22:36:59.614Z,3.93
2023-03-17T22:41:11.296Z,3.80
2023-03-17T22:45:19.840Z,3.60
2023-03-17T22:49:28.526Z,3.25
2023-03-17T22:53:38.230Z,3.07
2023-03-17T22:57:47.394Z,3.50
2023-03-17T23:01:56.523Z,3.53
2023-03-17T23:06:06.541Z,4.00
2023-03-17T23:10:17.410Z,4.17
2023-03-17T23:14:26.460Z,4.30
2023-03-17T23:18:35.544Z,3.90
2023-03-17T23:22:44.458Z,3.53
2023-03-17T23:26:53.075Z,4.40
2023-03-17T23:31:02.817Z,4.07
2023-03-17T23:35:13.399Z,3.93
2023-03-17T23:39:22.124Z,4.10
2023-03-17T23:43:30.919Z,3.60
2023-03-17T23:47:39.785Z,3.60
2023-03-17T23:51:48.497Z,3.90
2023-03-17T23:55:57.848Z,3.97
